WFDK1: Walnut River, Winfield, KS

Data processed at Sat May 19 2018 23:05


All information presented herein is the property of the government of the United States of America and may be revised or deleted at any time without prior notice.
Dissemination of this information without the expressed written consent of the Public Affairs Office, Tulsa District U.S. Army Corps of Engineers is strictly prohibited.
These data are gathered electronically and, as presented, have not undergone any form of quality control. These data are not guaranteed to be valid or correct.
Go to home page.
Go to station list.

Upstream stations:

Downstream station:
Previous Day
Next Day
Current Day
    
SHEF ID:       WFDK1     WALNUT R AT WINFIELD, KS
STATION TYPE:  

               PRECIP     STAGE  RIV-FLOW  BAT-LOAD
                   in        ft       cfs      volt
              Ccp-Rev   Ccp-Rev   Ccp-Rev   Ccp-Rev
(US/Central)
05/17 00:00      0.00      4.28      1720     12.41
05/17 01:00      0.00      4.22      1673     12.41
05/17 02:00      0.01      4.15      1619     12.41
05/17 03:00      0.00      4.08      1565     12.41
05/17 04:00      0.00      4.02      1520     12.41
05/17 05:00      0.00      3.96      1474     12.33
05/17 06:00      0.00      3.91      1437     12.33
05/17 07:00      0.00      3.88      1415     12.33
05/17 08:00      0.00      3.81      1363     12.33
05/17 09:00      0.01      3.76      1326     12.41
05/17 10:00      0.00      3.72      1297     13.05
05/17 11:00      0.00      3.69      1275     12.73
05/17 12:00      0.00      3.65      1246     13.60
05/17 13:00      0.00      3.60      1210     13.68
05/17 14:00      0.00      3.57      1189     13.60
05/17 15:00      0.00      3.54      1168     13.53
05/17 16:00      0.01      3.50      1143     13.21
05/17 17:00      0.00      3.47      1125     13.37
05/17 18:00      0.00      3.44      1107     13.21
05/17 19:00      0.00      3.41      1089     12.57
05/17 20:00      0.00      3.37      1065     12.57
05/17 21:00      0.00      3.36      1059     12.57
05/17 22:00      0.00      3.33      1043     12.49
05/17 23:00      0.01      3.29      1024     12.49